sensor_id;sensor_type;location;lat;lon;timestamp;P1;durP1;ratioP1;P2;durP2;ratioP2
46863;SDS011;32598;50.204;6.408;2022-09-23T19:25:25;11.82;;;6.22;;
46863;SDS011;32598;50.204;6.408;2022-09-23T19:27:50;10.83;;;5.87;;
46863;SDS011;32598;50.204;6.408;2022-09-23T19:30:15;8.63;;;5.57;;
46863;SDS011;32598;50.204;6.408;2022-09-23T19:32:42;11.77;;;6.93;;
46863;SDS011;32598;50.204;6.408;2022-09-23T19:35:08;11.35;;;5.90;;
46863;SDS011;32598;50.204;6.408;2022-09-23T19:37:33;8.98;;;4.90;;
46863;SDS011;32598;50.204;6.408;2022-09-23T19:39:59;11.07;;;5.05;;
46863;SDS011;32598;50.204;6.408;2022-09-23T19:42:24;9.57;;;5.27;;
46863;SDS011;32598;50.204;6.408;2022-09-23T19:44:51;9.65;;;5.75;;
46863;SDS011;32598;50.204;6.408;2022-09-23T19:47:17;8.98;;;4.82;;
46863;SDS011;32598;50.204;6.408;2022-09-23T19:49:42;9.93;;;4.57;;
46863;SDS011;32598;50.204;6.408;2022-09-23T19:52:07;10.00;;;4.32;;
46863;SDS011;32598;50.204;6.408;2022-09-23T19:54:32;7.25;;;3.75;;
46863;SDS011;32598;50.204;6.408;2022-09-23T19:56:58;11.57;;;3.92;;
46863;SDS011;32598;50.204;6.408;2022-09-23T19:59:23;7.68;;;4.30;;
46863;SDS011;32598;50.204;6.408;2022-09-23T20:01:50;11.75;;;5.32;;
46863;SDS011;32598;50.204;6.408;2022-09-23T20:04:15;11.33;;;5.10;;
46863;SDS011;32598;50.204;6.408;2022-09-23T20:06:40;11.35;;;5.50;;
46863;SDS011;32598;50.204;6.408;2022-09-23T20:09:05;11.23;;;5.45;;
46863;SDS011;32598;50.204;6.408;2022-09-23T20:11:31;11.40;;;5.20;;
46863;SDS011;32598;50.204;6.408;2022-09-23T20:13:58;12.73;;;6.40;;
46863;SDS011;32598;50.204;6.408;2022-09-23T20:16:29;10.65;;;5.10;;
46863;SDS011;32598;50.204;6.408;2022-09-23T20:18:55;11.25;;;5.85;;
46863;SDS011;32598;50.204;6.408;2022-09-23T20:21:21;9.60;;;5.25;;
46863;SDS011;32598;50.204;6.408;2022-09-23T20:23:46;8.82;;;4.72;;
46863;SDS011;32598;50.204;6.408;2022-09-23T20:26:11;10.18;;;4.68;;
46863;SDS011;32598;50.204;6.408;2022-09-23T20:28:55;7.97;;;4.18;;
46863;SDS011;32598;50.204;6.408;2022-09-23T20:31:21;9.30;;;4.55;;
46863;SDS011;32598;50.204;6.408;2022-09-23T20:33:50;11.60;;;5.13;;
46863;SDS011;32598;50.204;6.408;2022-09-23T20:36:15;8.70;;;4.10;;
46863;SDS011;32598;50.204;6.408;2022-09-23T20:38:41;8.80;;;5.18;;
46863;SDS011;32598;50.204;6.408;2022-09-23T20:41:06;9.13;;;5.60;;
46863;SDS011;32598;50.204;6.408;2022-09-23T20:43:32;10.45;;;5.50;;
46863;SDS011;32598;50.204;6.408;2022-09-23T20:45:58;11.68;;;6.97;;
46863;SDS011;32598;50.204;6.408;2022-09-23T20:48:25;11.07;;;6.18;;
46863;SDS011;32598;50.204;6.408;2022-09-23T20:50:50;12.02;;;6.63;;
46863;SDS011;32598;50.204;6.408;2022-09-23T20:53:16;12.13;;;5.57;;
46863;SDS011;32598;50.204;6.408;2022-09-23T20:55:48;11.07;;;6.80;;
46863;SDS011;32598;50.204;6.408;2022-09-23T20:58:14;12.32;;;7.13;;
46863;SDS011;32598;50.204;6.408;2022-09-23T21:00:40;12.48;;;7.28;;
46863;SDS011;32598;50.204;6.408;2022-09-23T21:03:06;14.88;;;7.00;;
46863;SDS011;32598;50.204;6.408;2022-09-23T21:05:33;13.23;;;8.00;;
46863;SDS011;32598;50.204;6.408;2022-09-23T21:07:58;12.63;;;8.15;;
46863;SDS011;32598;50.204;6.408;2022-09-23T21:10:23;18.70;;;8.20;;
46863;SDS011;32598;50.204;6.408;2022-09-23T21:12:48;16.30;;;7.72;;
46863;SDS011;32598;50.204;6.408;2022-09-23T21:15:14;12.82;;;6.25;;
46863;SDS011;32598;50.204;6.408;2022-09-23T21:17:39;9.70;;;5.95;;
46863;SDS011;32598;50.204;6.408;2022-09-23T21:20:05;10.50;;;6.43;;
46863;SDS011;32598;50.204;6.408;2022-09-23T21:22:30;13.98;;;7.10;;
46863;SDS011;32598;50.204;6.408;2022-09-23T21:24:56;12.18;;;7.20;;
46863;SDS011;32598;50.204;6.408;2022-09-23T21:27:21;11.15;;;6.75;;
46863;SDS011;32598;50.204;6.408;2022-09-23T21:29:46;13.55;;;7.60;;
46863;SDS011;32598;50.204;6.408;2022-09-23T21:32:11;11.40;;;7.27;;
46863;SDS011;32598;50.204;6.408;2022-09-23T21:34:37;10.55;;;6.97;;
46863;SDS011;32598;50.204;6.408;2022-09-23T21:37:02;10.98;;;7.13;;
46863;SDS011;32598;50.204;6.408;2022-09-23T21:39:27;12.73;;;8.55;;
46863;SDS011;32598;50.204;6.408;2022-09-23T21:41:53;13.38;;;8.57;;
46863;SDS011;32598;50.204;6.408;2022-09-23T21:44:18;11.80;;;7.47;;
46863;SDS011;32598;50.204;6.408;2022-09-23T21:46:43;12.15;;;7.95;;
46863;SDS011;32598;50.204;6.408;2022-09-23T21:49:08;12.93;;;8.13;;
46863;SDS011;32598;50.204;6.408;2022-09-23T21:51:34;13.20;;;7.90;;
46863;SDS011;32598;50.204;6.408;2022-09-23T21:54:02;13.50;;;8.68;;
46863;SDS011;32598;50.204;6.408;2022-09-23T21:56:29;15.43;;;7.93;;
46863;SDS011;32598;50.204;6.408;2022-09-23T21:58:56;15.98;;;8.00;;
46863;SDS011;32598;50.204;6.408;2022-09-23T22:01:25;12.65;;;8.52;;
46863;SDS011;32598;50.204;6.408;2022-09-23T22:03:51;12.77;;;7.68;;
46863;SDS011;32598;50.204;6.408;2022-09-23T22:06:18;16.60;;;8.23;;
46863;SDS011;32598;50.204;6.408;2022-09-23T22:08:45;13.07;;;7.53;;
46863;SDS011;32598;50.204;6.408;2022-09-23T22:11:11;12.60;;;7.22;;
46863;SDS011;32598;50.204;6.408;2022-09-23T22:13:56;15.43;;;8.68;;
46863;SDS011;32598;50.204;6.408;2022-09-23T22:16:21;15.27;;;9.23;;
46863;SDS011;32598;50.204;6.408;2022-09-23T22:18:49;14.40;;;8.48;;
46863;SDS011;32598;50.204;6.408;2022-09-23T22:21:14;12.70;;;8.25;;
46863;SDS011;32598;50.204;6.408;2022-09-23T22:25:47;15.82;;;9.00;;
46863;SDS011;32598;50.204;6.408;2022-09-23T22:28:13;17.27;;;8.85;;
46863;SDS011;32598;50.204;6.408;2022-09-23T22:30:56;16.25;;;8.73;;
46863;SDS011;32598;50.204;6.408;2022-09-23T22:33:40;15.82;;;8.00;;
46863;SDS011;32598;50.204;6.408;2022-09-23T22:36:06;13.35;;;8.07;;
46863;SDS011;32598;50.204;6.408;2022-09-23T22:38:35;11.07;;;7.22;;
46863;SDS011;32598;50.204;6.408;2022-09-23T22:41:00;14.47;;;8.57;;
46863;SDS011;32598;50.204;6.408;2022-09-23T22:43:25;14.57;;;7.07;;
46863;SDS011;32598;50.204;6.408;2022-09-23T22:45:50;12.23;;;6.10;;
46863;SDS011;32598;50.204;6.408;2022-09-23T22:48:16;11.82;;;7.15;;
46863;SDS011;32598;50.204;6.408;2022-09-23T22:50:44;13.35;;;7.05;;
46863;SDS011;32598;50.204;6.408;2022-09-23T22:53:10;12.65;;;7.60;;
46863;SDS011;32598;50.204;6.408;2022-09-23T22:55:35;14.27;;;7.00;;
46863;SDS011;32598;50.204;6.408;2022-09-23T22:58:00;13.60;;;6.70;;
46863;SDS011;32598;50.204;6.408;2022-09-23T23:00:25;13.13;;;6.93;;
46863;SDS011;32598;50.204;6.408;2022-09-23T23:02:53;11.70;;;7.07;;
46863;SDS011;32598;50.204;6.408;2022-09-23T23:05:18;13.77;;;7.25;;
46863;SDS011;32598;50.204;6.408;2022-09-23T23:07:43;11.77;;;7.00;;
46863;SDS011;32598;50.204;6.408;2022-09-23T23:10:08;14.32;;;7.03;;
46863;SDS011;32598;50.204;6.408;2022-09-23T23:12:34;12.60;;;7.10;;
46863;SDS011;32598;50.204;6.408;2022-09-23T23:14:59;13.70;;;7.18;;
46863;SDS011;32598;50.204;6.408;2022-09-23T23:17:24;12.47;;;6.87;;
46863;SDS011;32598;50.204;6.408;2022-09-23T23:19:49;13.30;;;6.80;;
46863;SDS011;32598;50.204;6.408;2022-09-23T23:22:15;13.13;;;6.45;;
46863;SDS011;32598;50.204;6.408;2022-09-23T23:24:40;13.50;;;6.80;;
46863;SDS011;32598;50.204;6.408;2022-09-23T23:27:05;13.50;;;7.33;;
46863;SDS011;32598;50.204;6.408;2022-09-23T23:29:30;12.33;;;7.07;;
46863;SDS011;32598;50.204;6.408;2022-09-23T23:31:55;12.67;;;6.77;;
46863;SDS011;32598;50.204;6.408;2022-09-23T23:34:21;11.77;;;6.40;;
46863;SDS011;32598;50.204;6.408;2022-09-23T23:36:47;11.07;;;6.13;;
46863;SDS011;32598;50.204;6.408;2022-09-23T23:39:18;14.38;;;7.70;;
46863;SDS011;32598;50.204;6.408;2022-09-23T23:41:43;11.68;;;6.78;;
46863;SDS011;32598;50.204;6.408;2022-09-23T23:44:10;10.75;;;5.68;;
46863;SDS011;32598;50.204;6.408;2022-09-23T23:46:35;10.43;;;6.28;;
46863;SDS011;32598;50.204;6.408;2022-09-23T23:49:01;13.27;;;6.93;;
46863;SDS011;32598;50.204;6.408;2022-09-23T23:51:27;13.02;;;6.63;;
46863;SDS011;32598;50.204;6.408;2022-09-23T23:53:53;12.77;;;5.68;;
46863;SDS011;32598;50.204;6.408;2022-09-23T23:56:19;14.25;;;7.22;;
46863;SDS011;32598;50.204;6.408;2022-09-23T23:58:44;9.57;;;5.72;;
